createdAt,value
2019-02-05T00:01:16.598Z,-0.70
2019-02-05T00:03:49.441Z,-0.70
2019-02-05T00:06:20.394Z,-0.70
2019-02-05T00:09:09.514Z,-0.80
2019-02-05T00:11:40.474Z,-0.80
2019-02-05T00:14:11.202Z,-0.90
2019-02-05T00:16:42.435Z,-1.00
2019-02-05T00:19:13.963Z,-1.00
2019-02-05T00:21:45.381Z,-0.90
2019-02-05T00:24:16.662Z,-1.00
2019-02-05T00:26:47.778Z,-0.90
2019-02-05T00:29:18.808Z,-0.90
2019-02-05T00:31:49.840Z,-0.90
2019-02-05T00:34:25.781Z,-0.90
2019-02-05T00:37:00.923Z,-0.90
2019-02-05T00:39:37.129Z,-0.90
2019-02-05T00:42:07.580Z,-1.00
2019-02-05T00:44:38.251Z,-1.00
2019-02-05T00:47:10.327Z,-1.10
2019-02-05T00:49:42.084Z,-1.10
2019-02-05T00:52:12.705Z,-1.00
2019-02-05T00:54:44.457Z,-1.10
2019-02-05T00:57:15.061Z,-1.10
2019-02-05T00:59:46.036Z,-1.20
2019-02-05T01:02:16.519Z,-1.20
2019-02-05T01:04:47.627Z,-1.20
2019-02-05T01:07:18.259Z,-1.20
2019-02-05T01:09:49.515Z,-1.20
2019-02-05T01:12:20.249Z,-1.30
2019-02-05T01:14:51.283Z,-1.20
2019-02-05T01:17:21.926Z,-1.20
2019-02-05T01:19:57.176Z,-1.10
2019-02-05T01:22:28.151Z,-1.10
2019-02-05T01:24:59.323Z,-1.20
2019-02-05T01:27:30.669Z,-1.20
2019-02-05T01:30:03.132Z,-1.20
2019-02-05T01:32:34.474Z,-1.20
2019-02-05T01:35:09.914Z,-1.20
2019-02-05T01:37:41.016Z,-1.20
2019-02-05T01:40:14.193Z,-1.20
2019-02-05T01:42:45.426Z,-1.30
2019-02-05T01:45:19.230Z,-1.30
2019-02-05T01:47:50.402Z,-1.30
2019-02-05T01:50:28.835Z,-1.30
2019-02-05T01:53:00.333Z,-1.30
2019-02-05T01:55:31.355Z,-1.20
2019-02-05T01:58:02.998Z,-1.20
2019-02-05T02:00:39.469Z,-1.10
2019-02-05T03:01:52.648Z,-2.00
2019-02-05T03:04:23.291Z,-2.00
2019-02-05T03:07:46.073Z,-2.10
2019-02-05T03:10:24.321Z,-2.10
2019-02-05T03:12:55.534Z,-2.10
2019-02-05T03:15:26.089Z,-2.20
2019-02-05T03:17:56.785Z,-2.20
2019-02-05T03:20:27.547Z,-2.30
2019-02-05T03:22:58.468Z,-2.40
2019-02-05T03:25:32.847Z,-2.50
2019-02-05T03:28:04.208Z,-2.50
2019-02-05T03:30:34.923Z,-2.60
2019-02-05T03:33:06.424Z,-2.70
2019-02-05T03:35:38.159Z,-2.70
2019-02-05T03:38:09.135Z,-2.70
2019-02-05T03:41:03.343Z,-2.70
2019-02-05T03:43:35.768Z,-2.70
2019-02-05T03:46:12.766Z,-2.60
2019-02-05T03:48:44.660Z,-2.60
2019-02-05T03:52:08.288Z,-2.60
2019-02-05T03:55:33.631Z,-2.70
2019-02-05T03:58:59.933Z,-2.70
2019-02-05T04:02:30.645Z,-2.80
2019-02-05T04:05:55.370Z,-2.70
2019-02-05T04:09:42.563Z,-2.80
2019-02-05T04:13:15.389Z,-2.70
2019-02-05T04:17:05.469Z,-2.80
2019-02-05T04:20:17.789Z,-2.90
2019-02-05T04:23:46.405Z,-3.00
2019-02-05T04:27:08.414Z,-3.00
2019-02-05T04:30:44.688Z,-3.00
2019-02-05T04:34:09.902Z,-3.20
2019-02-05T04:37:23.222Z,-3.30
2019-02-05T04:40:29.564Z,-3.30
2019-02-05T04:44:00.301Z,-3.30
2019-02-05T04:47:32.218Z,-3.20
2019-02-05T04:50:36.939Z,-3.00
2019-02-05T04:54:17.816Z,-2.80
2019-02-05T04:57:21.086Z,-2.70
2019-02-05T05:01:16.529Z,-2.60
2019-02-05T05:04:48.476Z,-2.50
2019-02-05T05:07:53.846Z,-2.40
2019-02-05T05:10:24.527Z,-2.40
2019-02-05T05:12:55.215Z,-2.40
2019-02-05T05:15:29.026Z,-2.40
2019-02-05T05:18:00.393Z,-2.40
2019-02-05T05:20:31.803Z,-2.40
2019-02-05T05:23:02.446Z,-2.40
2019-02-05T05:25:33.577Z,-2.40
2019-02-05T05:28:10.031Z,-2.50
2019-02-05T05:30:37.346Z,-2.50
2019-02-05T05:33:08.781Z,-2.60
2019-02-05T05:35:44.332Z,-2.60
2019-02-05T05:38:13.286Z,-2.70
2019-02-05T05:40:43.922Z,-2.70
2019-02-05T05:43:15.274Z,-2.70
2019-02-05T05:45:46.325Z,-2.60
2019-02-05T05:48:18.059Z,-2.60
2019-02-05T05:50:49.492Z,-2.50
2019-02-05T05:53:19.852Z,-2.60
2019-02-05T05:55:51.509Z,-2.60
2019-02-05T05:58:29.085Z,-2.60
2019-02-05T06:01:00.975Z,-2.60
2019-02-05T06:03:38.327Z,-2.60
2019-02-05T06:06:09.378Z,-2.50
2019-02-05T06:08:40.430Z,-2.50
2019-02-05T06:11:22.523Z,-2.40
2019-02-05T06:13:53.654Z,-2.30
2019-02-05T06:16:24.735Z,-2.40
2019-02-05T06:19:06.284Z,-2.60
2019-02-05T06:21:37.344Z,-2.60
2019-02-05T06:24:08.590Z,-2.50
2019-02-05T06:26:40.313Z,-2.40
2019-02-05T06:29:11.837Z,-2.40
2019-02-05T06:31:42.865Z,-2.40
2019-02-05T06:34:13.224Z,-2.40
2019-02-05T06:36:44.820Z,-2.40
2019-02-05T06:39:16.478Z,-2.30
2019-02-05T06:41:47.532Z,-2.30
2019-02-05T06:44:18.777Z,-2.20
2019-02-05T06:46:50.721Z,-2.10
2019-02-05T06:49:21.454Z,-2.00
2019-02-05T06:51:52.774Z,-1.90
2019-02-05T06:54:24.119Z,-1.80
2019-02-05T06:56:55.507Z,-1.70
2019-02-05T06:59:26.537Z,-1.70
2019-02-05T07:01:56.905Z,-1.70
2019-02-05T07:04:28.033Z,-1.70
2019-02-05T07:06:59.805Z,-1.70
2019-02-05T07:09:30.886Z,-1.70
2019-02-05T07:12:02.463Z,-1.70
2019-02-05T07:14:33.500Z,-1.60
2019-02-05T07:17:08.462Z,-1.60
2019-02-05T07:19:39.205Z,-1.40
2019-02-05T07:22:09.882Z,-1.40
2019-02-05T07:24:40.546Z,-1.40
2019-02-05T07:27:13.523Z,-1.30
2019-02-05T07:29:44.437Z,-1.30
2019-02-05T07:32:15.611Z,-1.20
2019-02-05T07:34:47.059Z,-1.10
2019-02-05T07:37:17.379Z,-1.00
2019-02-05T07:39:48.459Z,-0.90
2019-02-05T07:42:19.136Z,-0.90
2019-02-05T07:44:50.819Z,-0.80
2019-02-05T07:47:23.491Z,-0.80
2019-02-05T07:49:54.623Z,-0.70
2019-02-05T07:52:44.320Z,-0.60
2019-02-05T07:55:15.685Z,-0.60
2019-02-05T07:57:47.300Z,-0.50
2019-02-05T08:00:55.310Z,-0.40
2019-02-05T08:03:25.961Z,-0.20
2019-02-05T08:05:57.704Z,-0.20
2019-02-05T08:08:29.039Z,-0.30
2019-02-05T08:11:00.464Z,-0.40
2019-02-05T08:13:33.080Z,-0.40
2019-02-05T08:16:03.730Z,-0.50
2019-02-05T08:18:34.631Z,-0.40
2019-02-05T08:21:25.335Z,-0.20
2019-02-05T08:23:56.385Z,-0.20
2019-02-05T08:26:27.484Z,-0.10
2019-02-05T08:28:58.747Z,0.00
2019-02-05T08:31:30.572Z,0.00
2019-02-05T08:34:03.229Z,0.00
2019-02-05T08:36:33.389Z,-0.10
2019-02-05T08:39:05.802Z,-0.20
2019-02-05T08:41:36.756Z,-0.10
2019-02-05T08:44:07.478Z,-0.10
2019-02-05T08:46:38.512Z,0.00
2019-02-05T08:49:09.934Z,0.00
2019-02-05T08:51:41.633Z,0.00
2019-02-05T08:54:12.260Z,0.00
2019-02-05T08:56:42.883Z,0.10
2019-02-05T08:59:13.967Z,0.00
2019-02-05T09:01:44.955Z,0.00
2019-02-05T09:04:15.900Z,-0.10
2019-02-05T09:06:46.954Z,-0.20
2019-02-05T09:09:17.690Z,-0.10
2019-02-05T09:11:48.729Z,0.00
2019-02-05T09:14:19.756Z,0.00
2019-02-05T09:16:51.098Z,0.10
2019-02-05T09:19:21.813Z,0.10
2019-02-05T09:21:53.591Z,0.20
2019-02-05T09:24:25.205Z,0.20
2019-02-05T09:26:56.203Z,0.40
2019-02-05T09:29:33.429Z,0.70
2019-02-05T09:31:59.952Z,0.80
2019-02-05T09:34:30.300Z,0.60
2019-02-05T09:37:03.438Z,0.70
2019-02-05T09:39:34.101Z,0.60
2019-02-05T09:42:04.902Z,0.50
2019-02-05T09:44:36.045Z,0.50
2019-02-05T09:47:06.659Z,0.60
2019-02-05T09:49:38.129Z,1.00
2019-02-05T09:52:09.717Z,1.30
2019-02-05T09:54:40.417Z,1.40
2019-02-05T09:57:11.527Z,1.20
2019-02-05T09:59:45.351Z,1.40
2019-02-05T10:02:14.600Z,1.80
2019-02-05T10:04:45.947Z,1.90
2019-02-05T10:07:17.686Z,2.00
2019-02-05T10:09:48.400Z,2.00
2019-02-05T10:12:18.727Z,1.80
2019-02-05T10:14:50.471Z,1.50
2019-02-05T10:17:21.193Z,1.40
2019-02-05T10:19:51.615Z,1.20
2019-02-05T10:22:23.541Z,0.80
2019-02-05T10:24:56.347Z,0.80
2019-02-05T10:27:28.559Z,0.90
2019-02-05T10:29:59.623Z,1.30
2019-02-05T10:32:31.280Z,1.30
2019-02-05T10:35:02.691Z,1.40
2019-02-05T10:37:33.019Z,1.30
2019-02-05T10:40:04.882Z,1.20
2019-02-05T10:42:36.597Z,0.90
2019-02-05T10:45:09.522Z,0.90
2019-02-05T10:47:40.572Z,0.90
2019-02-05T10:50:13.443Z,1.10
2019-02-05T10:52:46.719Z,1.30
2019-02-05T10:55:20.576Z,1.70
2019-02-05T10:57:51.950Z,1.70
2019-02-05T11:00:26.376Z,1.80
2019-02-05T11:02:59.622Z,1.90
2019-02-05T11:05:32.176Z,1.70
2019-02-05T11:08:02.491Z,1.50
2019-02-05T11:10:33.457Z,1.30
2019-02-05T11:13:04.943Z,1.30
2019-02-05T11:15:36.428Z,1.40
2019-02-05T11:18:11.190Z,1.30
2019-02-05T11:20:42.981Z,1.40
2019-02-05T11:23:15.896Z,1.60
2019-02-05T11:25:47.063Z,1.50
2019-02-05T11:28:19.506Z,1.70
2019-02-05T11:30:52.097Z,1.70
2019-02-05T11:33:22.829Z,1.60
2019-02-05T11:35:54.210Z,1.40
2019-02-05T11:38:24.925Z,1.50
2019-02-05T11:40:55.909Z,1.60
2019-02-05T11:43:26.660Z,2.10
2019-02-05T11:45:57.904Z,2.10
2019-02-05T11:48:29.922Z,1.60
2019-02-05T11:51:00.951Z,1.60
2019-02-05T11:53:31.349Z,1.50
2019-02-05T11:56:02.351Z,1.70
2019-02-05T11:58:33.487Z,1.70
2019-02-05T12:01:14.275Z,1.80
2019-02-05T12:03:46.405Z,1.80
2019-02-05T12:06:17.356Z,1.90
2019-02-05T12:08:49.043Z,1.80
2019-02-05T12:11:20.059Z,1.80
2019-02-05T12:13:51.370Z,1.60
2019-02-05T12:16:22.580Z,1.80
2019-02-05T12:18:53.833Z,2.10
2019-02-05T12:21:26.461Z,1.90
2019-02-05T12:23:58.310Z,1.60
2019-02-05T12:26:29.955Z,1.50
2019-02-05T12:29:01.014Z,1.60
2019-02-05T12:31:33.294Z,1.60
2019-02-05T12:34:11.367Z,1.30
2019-02-05T12:36:44.392Z,1.50
2019-02-05T12:39:19.985Z,1.50
2019-02-05T12:41:51.490Z,1.40
2019-02-05T12:44:23.634Z,1.50
2019-02-05T12:46:54.300Z,1.50
2019-02-05T12:49:25.160Z,1.60
2019-02-05T12:51:57.086Z,1.40
2019-02-05T12:54:27.811Z,1.60
2019-02-05T12:56:59.167Z,1.80
2019-02-05T12:59:30.589Z,2.00
2019-02-05T13:02:01.293Z,1.70
2019-02-05T13:04:32.803Z,1.50
2019-02-05T13:07:03.630Z,1.50
2019-02-05T13:09:35.694Z,1.60
2019-02-05T13:12:09.299Z,1.70
2019-02-05T13:14:39.904Z,1.80
2019-02-05T13:17:10.251Z,1.80
2019-02-05T13:19:41.679Z,1.90
2019-02-05T13:22:12.468Z,1.80
2019-02-05T13:24:43.585Z,1.90
2019-02-05T13:27:14.307Z,2.00
2019-02-05T13:29:47.000Z,1.90
2019-02-05T13:32:17.947Z,1.80
2019-02-05T13:34:50.110Z,1.80
2019-02-05T13:37:21.140Z,1.60
2019-02-05T13:39:52.161Z,1.70
2019-02-05T13:42:23.481Z,1.80
2019-02-05T13:44:56.050Z,1.80
2019-02-05T13:47:26.813Z,1.90
2019-02-05T13:49:58.198Z,1.90
2019-02-05T13:52:29.040Z,1.90
2019-02-05T13:55:00.529Z,2.00
2019-02-05T13:57:31.300Z,1.90
2019-02-05T14:00:02.067Z,1.90
2019-02-05T14:02:32.622Z,1.70
2019-02-05T14:05:03.611Z,1.60
2019-02-05T14:07:33.953Z,2.00
2019-02-05T14:10:13.055Z,2.40
2019-02-05T14:12:46.384Z,2.60
2019-02-05T14:15:26.875Z,2.90
2019-02-05T14:17:57.648Z,3.50
2019-02-05T14:20:29.343Z,3.50
2019-02-05T14:22:59.739Z,3.10
2019-02-05T14:25:30.429Z,3.00
2019-02-05T14:28:03.253Z,2.80
2019-02-05T14:30:42.066Z,2.20
2019-02-05T14:33:12.802Z,2.20
2019-02-05T14:35:43.542Z,2.20
2019-02-05T14:38:14.811Z,2.60
2019-02-05T14:41:06.284Z,3.10
2019-02-05T14:43:38.211Z,3.10
2019-02-05T14:46:09.517Z,3.00
2019-02-05T14:48:40.555Z,2.90
2019-02-05T14:51:11.308Z,2.40
2019-02-05T14:53:42.851Z,2.10
2019-02-05T14:56:14.314Z,1.80
2019-02-05T14:58:45.049Z,1.50
2019-02-05T15:01:15.657Z,1.50
2019-02-05T15:03:47.014Z,1.40
2019-02-05T15:06:18.757Z,1.50
2019-02-05T15:09:26.903Z,1.60
2019-02-05T15:11:58.242Z,1.70
2019-02-05T15:14:29.654Z,2.00
2019-02-05T15:17:01.493Z,2.20
2019-02-05T15:19:32.012Z,2.00
2019-02-05T15:22:03.288Z,1.70
2019-02-05T15:24:37.948Z,1.40
2019-02-05T15:27:06.823Z,1.20
2019-02-05T15:29:38.064Z,1.00
2019-02-05T15:32:38.094Z,0.90
2019-02-05T15:35:10.594Z,0.90
2019-02-05T15:37:41.585Z,0.70
2019-02-05T15:40:14.281Z,0.70
2019-02-05T15:42:45.481Z,0.70
2019-02-05T15:45:18.898Z,0.60
2019-02-05T15:47:49.569Z,0.60
2019-02-05T15:50:20.229Z,0.60
2019-02-05T15:52:51.151Z,0.60
2019-02-05T15:55:22.073Z,0.60
2019-02-05T15:57:53.945Z,0.50
2019-02-05T16:00:25.275Z,0.40
2019-02-05T16:02:55.664Z,0.30
2019-02-05T16:05:26.326Z,0.20
2019-02-05T16:07:58.076Z,0.10
2019-02-05T16:10:29.155Z,0.10
2019-02-05T16:13:11.233Z,0.00
2019-02-05T16:15:45.322Z,0.00
2019-02-05T16:18:16.511Z,-0.10
2019-02-05T16:20:48.944Z,-0.20
2019-02-05T16:23:20.900Z,-0.20
2019-02-05T16:25:52.275Z,-0.30
2019-02-05T16:28:23.788Z,-0.30
2019-02-05T16:30:55.276Z,-0.40
2019-02-05T16:33:28.365Z,-0.50
2019-02-05T16:35:59.298Z,-0.50
2019-02-05T16:38:30.354Z,-0.50
2019-02-05T16:41:02.206Z,-0.50
2019-02-05T16:43:33.259Z,-0.40
2019-02-05T16:46:04.922Z,-0.50
2019-02-05T16:48:38.472Z,-0.50
2019-02-05T16:51:13.328Z,-0.50
2019-02-05T16:53:45.324Z,-0.60
2019-02-05T16:56:17.979Z,-0.60
2019-02-05T16:58:49.050Z,-0.60
2019-02-05T17:01:20.050Z,-0.60
2019-02-05T17:03:51.590Z,-0.70
2019-02-05T17:06:22.653Z,-0.70
2019-02-05T17:08:53.410Z,-0.60
2019-02-05T17:11:24.612Z,-0.60
2019-02-05T17:13:55.874Z,-0.60
2019-02-05T17:16:26.582Z,-0.60
2019-02-05T17:18:57.926Z,-0.60
2019-02-05T17:21:29.035Z,-0.50
2019-02-05T17:24:01.054Z,-0.50
2019-02-05T17:26:50.162Z,-0.50
2019-02-05T17:29:21.884Z,-0.40
2019-02-05T17:31:52.535Z,-0.40
2019-02-05T17:34:23.922Z,-0.40
2019-02-05T17:36:55.724Z,-0.30
2019-02-05T17:39:26.770Z,-0.30
2019-02-05T17:41:57.918Z,-0.40
2019-02-05T17:44:28.271Z,-0.40
2019-02-05T17:46:59.706Z,-0.40
2019-02-05T17:49:31.160Z,-0.30
2019-02-05T17:52:01.593Z,-0.30
2019-02-05T17:54:32.292Z,-0.30
2019-02-05T17:57:02.782Z,-0.30
2019-02-05T17:59:33.154Z,-0.30
2019-02-05T18:02:07.550Z,-0.30
2019-02-05T18:04:38.709Z,-0.20
2019-02-05T18:07:09.757Z,-0.20
2019-02-05T18:09:41.464Z,-0.30
2019-02-05T18:12:12.554Z,-0.30
2019-02-05T18:14:49.155Z,-0.30
2019-02-05T18:17:20.149Z,-0.30
2019-02-05T18:19:52.133Z,-0.30
2019-02-05T18:22:22.731Z,-0.30
2019-02-05T18:25:21.183Z,-0.30
2019-02-05T18:27:52.018Z,-0.30
2019-02-05T18:30:30.069Z,-0.30
2019-02-05T18:33:03.942Z,-0.40
2019-02-05T18:35:34.119Z,-0.30
2019-02-05T18:38:12.153Z,-0.40
2019-02-05T18:40:43.315Z,-0.40
2019-02-05T18:43:14.610Z,-0.40
2019-02-05T18:45:45.564Z,-0.40
2019-02-05T18:48:16.588Z,-0.40
2019-02-05T18:50:47.298Z,-0.40
2019-02-05T18:53:18.069Z,-0.40
2019-02-05T18:55:49.122Z,-0.40
2019-02-05T18:58:20.476Z,-0.40
2019-02-05T19:01:12.418Z,-0.50
2019-02-05T19:03:43.448Z,-0.50
2019-02-05T19:06:25.357Z,-0.50
2019-02-05T19:08:56.245Z,-0.60
2019-02-05T19:11:27.591Z,-0.70
2019-02-05T19:14:14.929Z,-0.70
2019-02-05T19:16:45.523Z,-0.70
2019-02-05T19:19:16.726Z,-0.70
2019-02-05T19:22:03.291Z,-0.70
2019-02-05T19:24:45.794Z,-0.70
2019-02-05T19:27:21.764Z,-0.70
2019-02-05T19:29:53.083Z,-0.70
2019-02-05T19:32:28.291Z,-0.70
2019-02-05T19:34:59.798Z,-0.70
2019-02-05T19:37:30.950Z,-0.70
2019-02-05T19:40:02.402Z,-0.70
2019-02-05T19:42:33.893Z,-0.70
2019-02-05T19:45:23.868Z,-0.70
2019-02-05T19:47:54.523Z,-0.70
2019-02-05T19:50:25.602Z,-0.70
2019-02-05T19:53:04.856Z,-0.60
2019-02-05T19:55:35.202Z,-0.60
2019-02-05T19:58:06.965Z,-0.50
2019-02-05T20:00:37.682Z,-0.40
2019-02-05T20:03:09.007Z,-0.40
2019-02-05T20:05:42.203Z,-0.40
2019-02-05T20:08:18.360Z,-0.40
2019-02-05T20:10:56.355Z,-0.30
2019-02-05T20:13:40.792Z,-0.30
2019-02-05T20:16:15.788Z,-0.30
2019-02-05T20:19:13.552Z,-0.30
2019-02-05T20:22:11.027Z,-0.30
2019-02-05T20:24:45.074Z,-0.30
2019-02-05T20:27:29.373Z,-0.30
2019-02-05T20:29:59.840Z,-0.30
2019-02-05T20:32:30.199Z,-0.30
2019-02-05T20:35:01.138Z,-0.30
2019-02-05T20:37:34.151Z,-0.20
2019-02-05T20:40:15.523Z,-0.20
2019-02-05T20:43:14.922Z,-0.30
2019-02-05T20:46:00.213Z,-0.30
2019-02-05T20:48:37.589Z,-0.20
2019-02-05T20:51:08.257Z,-0.30
2019-02-05T20:53:39.732Z,-0.30
2019-02-05T20:59:06.418Z,-0.20
2019-02-05T21:02:10.497Z,-0.20
2019-02-05T21:04:56.713Z,-0.20
2019-02-05T21:07:49.229Z,-0.20
2019-02-05T21:10:42.687Z,-0.20
2019-02-05T21:13:19.855Z,-0.30
2019-02-05T21:19:11.367Z,-0.30
2019-02-05T21:21:58.783Z,-0.30
2019-02-05T21:24:39.108Z,-0.20
2019-02-05T21:27:23.626Z,-0.20
2019-02-05T21:30:04.335Z,-0.20
2019-02-05T21:32:42.851Z,-0.20
2019-02-05T21:35:17.513Z,-0.20
2019-02-05T21:37:50.696Z,-0.20
2019-02-05T21:40:57.335Z,-0.10
2019-02-05T21:43:30.792Z,-0.10
2019-02-05T21:46:02.200Z,-0.10
2019-02-05T21:48:32.952Z,-0.10
2019-02-05T21:51:12.281Z,-0.20
2019-02-05T21:53:44.040Z,-0.20
2019-02-05T21:56:15.587Z,-0.20
2019-02-05T21:58:47.280Z,-0.20
2019-02-05T22:01:28.218Z,-0.20
2019-02-05T22:03:59.200Z,-0.20
2019-02-05T22:06:30.451Z,-0.20
2019-02-05T22:09:01.796Z,-0.20
2019-02-05T22:11:45.381Z,-0.20
2019-02-05T22:14:16.677Z,-0.30
2019-02-05T22:16:48.235Z,-0.30
2019-02-05T22:19:21.094Z,-0.30
2019-02-05T22:21:52.775Z,-0.30
2019-02-05T22:24:23.784Z,-0.30
2019-02-05T22:26:54.866Z,-0.30
2019-02-05T22:29:26.174Z,-0.30
2019-02-05T22:31:57.626Z,-0.30
2019-02-05T22:34:38.800Z,-0.30
2019-02-05T22:37:03.704Z,-0.40
2019-02-05T22:39:34.572Z,-0.30
2019-02-05T22:42:13.482Z,-0.30
2019-02-05T22:44:50.113Z,-0.30
2019-02-05T22:47:22.151Z,-0.30
2019-02-05T22:50:17.965Z,-0.30
2019-02-05T22:52:50.784Z,-0.30
2019-02-05T22:55:22.044Z,-0.30
2019-02-05T22:57:54.782Z,-0.30
2019-02-05T23:01:25.199Z,-0.20
2019-02-05T23:04:14.505Z,-0.30
2019-02-05T23:07:14.562Z,-0.30
2019-02-05T23:10:14.154Z,-0.30
2019-02-05T23:12:50.969Z,-0.30
2019-02-05T23:15:28.991Z,-0.30
2019-02-05T23:17:59.553Z,-0.40
2019-02-05T23:20:41.251Z,-0.40
2019-02-05T23:23:11.988Z,-0.40
2019-02-05T23:25:43.135Z,-0.40
2019-02-05T23:28:13.749Z,-0.40
2019-02-05T23:30:44.594Z,-0.40
2019-02-05T23:33:16.374Z,-0.30
2019-02-05T23:35:47.397Z,-0.30
2019-02-05T23:38:18.863Z,-0.30
2019-02-05T23:40:50.219Z,-0.30
2019-02-05T23:43:21.620Z,-0.40
2019-02-05T23:46:01.543Z,-0.40
2019-02-05T23:48:25.041Z,-0.40
2019-02-05T23:50:55.815Z,-0.40
2019-02-05T23:53:27.180Z,-0.50
2019-02-05T23:56:04.027Z,-0.50
2019-02-05T23:58:35.748Z,-0.40
